sensor_id;sensor_type;location;lat;lon;timestamp;pressure;altitude;pressure_sealevel;temperature;humidity
40692;BME280;26377;53.344;14.886;2022-09-06T00:00:38;102351.91;;;14.24;49.83
40692;BME280;26377;53.344;14.886;2022-09-06T00:03:12;102365.77;;;14.22;49.86
40692;BME280;26377;53.344;14.886;2022-09-06T00:05:43;102362.33;;;14.19;49.92
40692;BME280;26377;53.344;14.886;2022-09-06T00:08:12;102359.78;;;14.16;49.98
40692;BME280;26377;53.344;14.886;2022-09-06T00:10:42;102357.71;;;14.12;50.05
40692;BME280;26377;53.344;14.886;2022-09-06T00:13:11;102360.04;;;14.10;50.11
40692;BME280;26377;53.344;14.886;2022-09-06T00:15:38;102353.97;;;14.06;50.15
40692;BME280;26377;53.344;14.886;2022-09-06T00:18:06;102354.48;;;14.04;50.18
40692;BME280;26377;53.344;14.886;2022-09-06T00:20:37;102353.30;;;14.01;50.25
40692;BME280;26377;53.344;14.886;2022-09-06T00:23:08;102348.07;;;13.98;50.32
40692;BME280;26377;53.344;14.886;2022-09-06T00:25:36;102346.06;;;13.93;50.34
40692;BME280;26377;53.344;14.886;2022-09-06T00:28:04;102349.72;;;13.91;50.41
40692;BME280;26377;53.344;14.886;2022-09-06T00:30:33;102352.50;;;13.88;50.47
40692;BME280;26377;53.344;14.886;2022-09-06T00:33:00;102352.64;;;13.85;50.52
40692;BME280;26377;53.344;14.886;2022-09-06T00:35:28;102351.87;;;13.81;50.58
40692;BME280;26377;53.344;14.886;2022-09-06T00:37:57;102352.87;;;13.79;50.66
40692;BME280;26377;53.344;14.886;2022-09-06T00:40:27;102351.25;;;13.75;50.74
40692;BME280;26377;53.344;14.886;2022-09-06T00:42:56;102350.52;;;13.71;50.79
40692;BME280;26377;53.344;14.886;2022-09-06T00:45:28;102353.77;;;13.68;50.86
40692;BME280;26377;53.344;14.886;2022-09-06T00:47:58;102349.44;;;13.65;50.95
40692;BME280;26377;53.344;14.886;2022-09-06T00:50:28;102355.36;;;13.62;50.99
40692;BME280;26377;53.344;14.886;2022-09-06T00:52:59;102348.35;;;13.59;51.09
40692;BME280;26377;53.344;14.886;2022-09-06T00:55:29;102353.90;;;13.53;51.18
40692;BME280;26377;53.344;14.886;2022-09-06T00:58:01;102352.71;;;13.50;51.23
40692;BME280;26377;53.344;14.886;2022-09-06T01:00:31;102351.43;;;13.49;51.28
40692;BME280;26377;53.344;14.886;2022-09-06T01:03:00;102354.66;;;13.45;51.36
40692;BME280;26377;53.344;14.886;2022-09-06T01:05:38;102350.40;;;13.41;51.40
40692;BME280;26377;53.344;14.886;2022-09-06T01:11:24;102348.83;;;13.36;51.55
40692;BME280;26377;53.344;14.886;2022-09-06T01:29:01;102335.45;;;13.14;52.10
40692;BME280;26377;53.344;14.886;2022-09-06T01:31:47;102331.61;;;13.10;52.18
40692;BME280;26377;53.344;14.886;2022-09-06T01:34:20;102341.47;;;13.08;52.25
40692;BME280;26377;53.344;14.886;2022-09-06T01:37:05;102339.84;;;13.04;52.35
40692;BME280;26377;53.344;14.886;2022-09-06T01:39:42;102339.89;;;13.02;52.45
40692;BME280;26377;53.344;14.886;2022-09-06T01:42:20;102339.15;;;12.99;52.52
40692;BME280;26377;53.344;14.886;2022-09-06T01:45:07;102344.09;;;12.96;52.67
40692;BME280;26377;53.344;14.886;2022-09-06T01:50:43;102335.00;;;12.90;52.96
40692;BME280;26377;53.344;14.886;2022-09-06T02:02:10;102330.74;;;12.73;53.35
40692;BME280;26377;53.344;14.886;2022-09-06T02:04:46;102341.09;;;12.69;53.41
40692;BME280;26377;53.344;14.886;2022-09-06T02:07:22;102333.34;;;12.63;53.44
40692;BME280;26377;53.344;14.886;2022-09-06T02:10:12;102332.69;;;12.56;53.50
40692;BME280;26377;53.344;14.886;2022-09-06T02:12:42;102346.62;;;12.51;53.53
40692;BME280;26377;53.344;14.886;2022-09-06T02:15:20;102342.77;;;12.47;53.60
40692;BME280;26377;53.344;14.886;2022-09-06T02:18:01;102340.38;;;12.39;53.66
40692;BME280;26377;53.344;14.886;2022-09-06T02:20:30;102348.63;;;12.32;53.71
40692;BME280;26377;53.344;14.886;2022-09-06T02:23:02;102352.27;;;12.29;53.82
40692;BME280;26377;53.344;14.886;2022-09-06T02:25:40;102351.07;;;12.25;53.87
40692;BME280;26377;53.344;14.886;2022-09-06T02:28:08;102348.98;;;12.21;53.97
40692;BME280;26377;53.344;14.886;2022-09-06T02:30:44;102352.66;;;12.17;54.04
40692;BME280;26377;53.344;14.886;2022-09-06T02:33:16;102337.27;;;12.14;54.11
40692;BME280;26377;53.344;14.886;2022-09-06T02:35:51;102336.11;;;12.09;54.21
40692;BME280;26377;53.344;14.886;2022-09-06T02:38:23;102334.47;;;12.05;54.29
40692;BME280;26377;53.344;14.886;2022-09-06T02:40:51;102326.58;;;12.02;54.40
40692;BME280;26377;53.344;14.886;2022-09-06T02:43:24;102324.94;;;11.98;54.50
40692;BME280;26377;53.344;14.886;2022-09-06T02:45:53;102331.23;;;11.96;54.58
40692;BME280;26377;53.344;14.886;2022-09-06T02:48:20;102326.84;;;11.95;54.64
40692;BME280;26377;53.344;14.886;2022-09-06T02:50:49;102323.38;;;11.93;54.71
40692;BME280;26377;53.344;14.886;2022-09-06T02:53:18;102314.56;;;11.91;54.78
40692;BME280;26377;53.344;14.886;2022-09-06T02:55:48;102324.39;;;11.89;54.86
40692;BME280;26377;53.344;14.886;2022-09-06T02:58:19;102319.97;;;11.88;54.92
40692;BME280;26377;53.344;14.886;2022-09-06T03:00:53;102324.88;;;11.87;54.98
40692;BME280;26377;53.344;14.886;2022-09-06T03:03:22;102333.38;;;11.85;55.02
40692;BME280;26377;53.344;14.886;2022-09-06T03:05:52;102332.19;;;11.80;55.05
40692;BME280;26377;53.344;14.886;2022-09-06T03:08:23;102334.03;;;11.78;55.13
40692;BME280;26377;53.344;14.886;2022-09-06T03:10:55;102330.18;;;11.74;55.15
40692;BME280;26377;53.344;14.886;2022-09-06T03:13:24;102319.70;;;11.69;55.21
40692;BME280;26377;53.344;14.886;2022-09-06T03:15:53;102323.33;;;11.67;55.30
40692;BME280;26377;53.344;14.886;2022-09-06T03:18:28;102325.23;;;11.63;55.38
40692;BME280;26377;53.344;14.886;2022-09-06T03:20:53;102323.10;;;11.60;55.40
40692;BME280;26377;53.344;14.886;2022-09-06T03:23:26;102320.97;;;11.56;55.44
40692;BME280;26377;53.344;14.886;2022-09-06T03:25:56;102318.11;;;11.49;55.47
40692;BME280;26377;53.344;14.886;2022-09-06T03:28:23;102316.10;;;11.43;55.61
40692;BME280;26377;53.344;14.886;2022-09-06T03:30:52;102320.77;;;11.35;55.66
40692;BME280;26377;53.344;14.886;2022-09-06T03:33:22;102327.09;;;11.31;55.73
40692;BME280;26377;53.344;14.886;2022-09-06T03:35:56;102316.66;;;11.25;55.83
40692;BME280;26377;53.344;14.886;2022-09-06T03:38:25;102322.98;;;11.21;55.90
40692;BME280;26377;53.344;14.886;2022-09-06T03:40:55;102316.78;;;11.20;56.00
40692;BME280;26377;53.344;14.886;2022-09-06T03:43:25;102317.34;;;11.17;56.06
40692;BME280;26377;53.344;14.886;2022-09-06T03:45:54;102319.67;;;11.13;56.18
40692;BME280;26377;53.344;14.886;2022-09-06T03:48:28;102315.69;;;11.13;56.27
40692;BME280;26377;53.344;14.886;2022-09-06T03:50:57;102318.45;;;11.10;56.33
40692;BME280;26377;53.344;14.886;2022-09-06T03:53:28;102321.23;;;11.05;56.40
40692;BME280;26377;53.344;14.886;2022-09-06T03:56:02;102322.19;;;11.03;56.49
40692;BME280;26377;53.344;14.886;2022-09-06T03:58:32;102319.13;;;11.02;56.63
40692;BME280;26377;53.344;14.886;2022-09-06T04:01:08;102315.14;;;11.02;56.69
40692;BME280;26377;53.344;14.886;2022-09-06T04:03:38;102315.22;;;10.99;56.72
40692;BME280;26377;53.344;14.886;2022-09-06T04:06:08;102313.56;;;10.95;56.81
40692;BME280;26377;53.344;14.886;2022-09-06T04:08:38;102311.43;;;10.93;56.88
40692;BME280;26377;53.344;14.886;2022-09-06T04:11:06;102311.17;;;10.86;56.91
40692;BME280;26377;53.344;14.886;2022-09-06T04:13:37;102305.28;;;10.76;56.91
40692;BME280;26377;53.344;14.886;2022-09-06T04:16:06;102310.70;;;10.72;57.02
40692;BME280;26377;53.344;14.886;2022-09-06T04:18:35;102314.42;;;10.66;57.06
40692;BME280;26377;53.344;14.886;2022-09-06T04:21:04;102313.72;;;10.60;57.12
40692;BME280;26377;53.344;14.886;2022-09-06T04:23:32;102323.52;;;10.56;57.19
40692;BME280;26377;53.344;14.886;2022-09-06T04:25:59;102317.84;;;10.54;57.23
40692;BME280;26377;53.344;14.886;2022-09-06T04:28:27;102317.06;;;10.50;57.29
40692;BME280;26377;53.344;14.886;2022-09-06T04:30:57;102313.59;;;10.48;57.37
40692;BME280;26377;53.344;14.886;2022-09-06T04:33:26;102313.08;;;10.50;57.46
40692;BME280;26377;53.344;14.886;2022-09-06T04:35:59;102307.94;;;10.76;57.53
40692;BME280;26377;53.344;14.886;2022-09-06T04:38:33;102313.62;;;11.08;57.48
40692;BME280;26377;53.344;14.886;2022-09-06T04:40:59;102306.20;;;11.33;57.47
40692;BME280;26377;53.344;14.886;2022-09-06T04:43:29;102311.92;;;11.49;57.66
40692;BME280;26377;53.344;14.886;2022-09-06T04:48:42;102312.19;;;11.54;57.71
40692;BME280;26377;53.344;14.886;2022-09-06T04:51:10;102310.38;;;11.55;57.74
40692;BME280;26377;53.344;14.886;2022-09-06T04:53:37;102307.16;;;11.60;57.77
40692;BME280;26377;53.344;14.886;2022-09-06T04:56:05;102300.22;;;11.69;57.82
40692;BME280;26377;53.344;14.886;2022-09-06T04:58:33;102298.23;;;11.75;57.81
40692;BME280;26377;53.344;14.886;2022-09-06T05:01:00;102293.14;;;11.82;57.81
40692;BME280;26377;53.344;14.886;2022-09-06T05:03:29;102292.97;;;11.87;57.66
40692;BME280;26377;53.344;14.886;2022-09-06T05:06:08;102292.92;;;11.88;57.64
40692;BME280;26377;53.344;14.886;2022-09-06T05:08:38;102290.58;;;11.92;57.60
40692;BME280;26377;53.344;14.886;2022-09-06T05:11:07;102281.72;;;11.92;57.51
40692;BME280;26377;53.344;14.886;2022-09-06T05:13:36;102292.31;;;11.93;57.55
40692;BME280;26377;53.344;14.886;2022-09-06T05:35:04;102279.41;;;12.69;57.23
40692;BME280;26377;53.344;14.886;2022-09-06T05:37:31;102273.24;;;12.67;57.25
40692;BME280;26377;53.344;14.886;2022-09-06T05:40:00;102275.80;;;12.70;57.30
40692;BME280;26377;53.344;14.886;2022-09-06T05:42:29;102278.28;;;12.75;57.38
40692;BME280;26377;53.344;14.886;2022-09-06T05:44:58;102283.41;;;12.81;57.33
40692;BME280;26377;53.344;14.886;2022-09-06T05:47:27;102280.91;;;12.88;57.37
40692;BME280;26377;53.344;14.886;2022-09-06T05:49:56;102276.14;;;12.98;57.41
40692;BME280;26377;53.344;14.886;2022-09-06T05:52:23;102274.75;;;13.11;57.45
40692;BME280;26377;53.344;14.886;2022-09-06T05:54:52;102279.09;;;13.25;57.39
40692;BME280;26377;53.344;14.886;2022-09-06T05:57:20;102275.86;;;13.38;57.30
40692;BME280;26377;53.344;14.886;2022-09-06T05:59:48;102271.89;;;13.48;57.16
40692;BME280;26377;53.344;14.886;2022-09-06T06:02:15;102271.81;;;13.61;57.04
40692;BME280;26377;53.344;14.886;2022-09-06T06:04:44;102273.90;;;13.75;57.03
40692;BME280;26377;53.344;14.886;2022-09-06T06:07:11;102271.08;;;13.89;56.90
40692;BME280;26377;53.344;14.886;2022-09-06T06:09:38;102265.69;;;14.01;56.76
40692;BME280;26377;53.344;14.886;2022-09-06T06:12:06;102264.30;;;14.12;56.62
40692;BME280;26377;53.344;14.886;2022-09-06T06:14:33;102263.66;;;14.27;56.49
40692;BME280;26377;53.344;14.886;2022-09-06T06:17:01;102268.81;;;14.42;56.43
40692;BME280;26377;53.344;14.886;2022-09-06T06:19:28;102266.00;;;14.55;56.25
40692;BME280;26377;53.344;14.886;2022-09-06T06:21:56;102265.30;;;14.70;56.14
40692;BME280;26377;53.344;14.886;2022-09-06T06:24:24;102265.16;;;14.83;55.94
40692;BME280;26377;53.344;14.886;2022-09-06T06:26:51;102269.84;;;14.96;55.79
40692;BME280;26377;53.344;14.886;2022-09-06T06:29:18;102265.60;;;15.11;55.62
40692;BME280;26377;53.344;14.886;2022-09-06T06:31:46;102263.59;;;15.24;55.42
40692;BME280;26377;53.344;14.886;2022-09-06T06:34:15;102261.05;;;15.31;55.16
40692;BME280;26377;53.344;14.886;2022-09-06T06:36:45;102262.69;;;15.44;55.05
40692;BME280;26377;53.344;14.886;2022-09-06T06:39:16;102260.66;;;15.57;54.82
40692;BME280;26377;53.344;14.886;2022-09-06T06:41:43;102256.69;;;15.66;54.59
40692;BME280;26377;53.344;14.886;2022-09-06T06:44:26;102251.73;;;15.75;54.36
40692;BME280;26377;53.344;14.886;2022-09-06T06:46:57;102250.89;;;15.83;54.14
40692;BME280;26377;53.344;14.886;2022-09-06T06:49:28;102256.09;;;15.95;54.01
40692;BME280;26377;53.344;14.886;2022-09-06T06:51:55;102259.95;;;16.06;53.88
40692;BME280;26377;53.344;14.886;2022-09-06T06:54:24;102256.56;;;16.20;53.78
40692;BME280;26377;53.344;14.886;2022-09-06T06:56:52;102250.13;;;16.32;53.67
40692;BME280;26377;53.344;14.886;2022-09-06T06:59:19;102246.20;;;16.48;53.41
40692;BME280;26377;53.344;14.886;2022-09-06T07:01:46;102249.31;;;16.56;53.31
40692;BME280;26377;53.344;14.886;2022-09-06T07:04:15;102245.19;;;16.74;53.22
40692;BME280;26377;53.344;14.886;2022-09-06T07:06:48;102250.59;;;16.90;53.00
40692;BME280;26377;53.344;14.886;2022-09-06T07:09:17;102245.14;;;17.07;52.88
40692;BME280;26377;53.344;14.886;2022-09-06T07:11:47;102249.18;;;17.22;52.58
40692;BME280;26377;53.344;14.886;2022-09-06T07:14:15;102250.61;;;17.36;52.33
40692;BME280;26377;53.344;14.886;2022-09-06T07:16:44;102245.35;;;17.50;52.17
40692;BME280;26377;53.344;14.886;2022-09-06T07:19:13;102244.49;;;17.65;51.90
40692;BME280;26377;53.344;14.886;2022-09-06T07:21:42;102248.58;;;17.79;51.69
40692;BME280;26377;53.344;14.886;2022-09-06T07:24:09;102251.20;;;17.88;51.34
40692;BME280;26377;53.344;14.886;2022-09-06T07:26:38;102249.23;;;17.98;51.09
40692;BME280;26377;53.344;14.886;2022-09-06T07:29:07;102243.31;;;18.07;50.86
40692;BME280;26377;53.344;14.886;2022-09-06T07:31:37;102250.61;;;18.12;50.69
40692;BME280;26377;53.344;14.886;2022-09-06T07:34:04;102243.98;;;18.18;50.53
40692;BME280;26377;53.344;14.886;2022-09-06T07:36:33;102247.00;;;18.27;50.32
40692;BME280;26377;53.344;14.886;2022-09-06T07:39:03;102251.32;;;18.30;50.01
40692;BME280;26377;53.344;14.886;2022-09-06T07:41:30;102238.55;;;18.56;50.08
40692;BME280;26377;53.344;14.886;2022-09-06T07:43:58;102238.55;;;18.56;50.08
40692;BME280;26377;53.344;14.886;2022-09-06T07:46:25;102240.55;;;18.87;49.63
40692;BME280;26377;53.344;14.886;2022-09-06T07:48:52;102240.55;;;18.87;49.63
40692;BME280;26377;53.344;14.886;2022-09-06T07:51:22;102240.72;;;18.98;49.20
40692;BME280;26377;53.344;14.886;2022-09-06T07:53:51;102239.27;;;19.14;49.42
40692;BME280;26377;53.344;14.886;2022-09-06T07:56:21;102231.58;;;19.29;48.93
40692;BME280;26377;53.344;14.886;2022-09-06T07:58:50;102229.91;;;19.40;48.60
40692;BME280;26377;53.344;14.886;2022-09-06T08:01:27;102230.19;;;19.50;48.51
40692;BME280;26377;53.344;14.886;2022-09-06T08:04:08;102231.53;;;19.57;48.21
40692;BME280;26377;53.344;14.886;2022-09-06T08:06:45;102220.67;;;19.51;47.74
40692;BME280;26377;53.344;14.886;2022-09-06T08:09:10;102221.83;;;19.54;47.70
40692;BME280;26377;53.344;14.886;2022-09-06T08:11:39;102223.13;;;19.61;47.57
40692;BME280;26377;53.344;14.886;2022-09-06T08:14:08;102221.37;;;19.67;47.45
40692;BME280;26377;53.344;14.886;2022-09-06T08:16:37;102217.88;;;19.72;47.33
40692;BME280;26377;53.344;14.886;2022-09-06T08:19:06;102216.89;;;19.80;47.30
40692;BME280;26377;53.344;14.886;2022-09-06T08:21:36;102222.26;;;19.87;47.28
40692;BME280;26377;53.344;14.886;2022-09-06T08:24:06;102221.28;;;19.88;46.95
40692;BME280;26377;53.344;14.886;2022-09-06T08:26:41;102220.13;;;19.85;46.80
40692;BME280;26377;53.344;14.886;2022-09-06T08:29:12;102221.30;;;19.81;46.46
40692;BME280;26377;53.344;14.886;2022-09-06T08:31:41;102212.67;;;19.76;46.29
40692;BME280;26377;53.344;14.886;2022-09-06T08:34:09;102217.39;;;19.80;46.22
40692;BME280;26377;53.344;14.886;2022-09-06T08:36:43;102224.88;;;19.82;46.13
40692;BME280;26377;53.344;14.886;2022-09-06T08:39:13;102215.63;;;19.86;46.05
40692;BME280;26377;53.344;14.886;2022-09-06T08:42:02;102217.73;;;20.00;46.19
40692;BME280;26377;53.344;14.886;2022-09-06T08:44:42;102217.82;;;20.13;46.04
40692;BME280;26377;53.344;14.886;2022-09-06T08:47:13;102212.54;;;20.24;45.88
40692;BME280;26377;53.344;14.886;2022-09-06T09:00:11;102199.77;;;20.70;45.36
40692;BME280;26377;53.344;14.886;2022-09-06T09:03:10;102195.34;;;20.94;45.30
40692;BME280;26377;53.344;14.886;2022-09-06T09:05:39;102195.09;;;21.10;44.93
40692;BME280;26377;53.344;14.886;2022-09-06T09:11:01;102192.91;;;21.38;44.43
40692;BME280;26377;53.344;14.886;2022-09-06T09:14:02;102189.52;;;21.42;44.06
40692;BME280;26377;53.344;14.886;2022-09-06T09:16:30;102194.52;;;21.41;43.73
40692;BME280;26377;53.344;14.886;2022-09-06T09:19:03;102198.05;;;21.30;43.17
40692;BME280;26377;53.344;14.886;2022-09-06T09:21:36;102192.66;;;21.18;42.87
40692;BME280;26377;53.344;14.886;2022-09-06T09:24:07;102187.98;;;21.14;42.72
40692;BME280;26377;53.344;14.886;2022-09-06T09:26:53;102184.56;;;21.18;42.71
40692;BME280;26377;53.344;14.886;2022-09-06T09:29:58;102184.87;;;21.26;42.52
40692;BME280;26377;53.344;14.886;2022-09-06T09:32:31;102178.16;;;21.31;42.35
40692;BME280;26377;53.344;14.886;2022-09-06T09:35:29;102171.72;;;21.39;42.21
40692;BME280;26377;53.344;14.886;2022-09-06T09:38:11;102169.64;;;21.43;42.09
40692;BME280;26377;53.344;14.886;2022-09-06T09:40:40;102170.15;;;21.48;41.83
40692;BME280;26377;53.344;14.886;2022-09-06T09:43:31;102166.28;;;21.57;41.64
40692;BME280;26377;53.344;14.886;2022-09-06T09:49:14;102155.69;;;21.78;41.41
40692;BME280;26377;53.344;14.886;2022-09-06T09:52:11;102158.55;;;21.87;41.23
40692;BME280;26377;53.344;14.886;2022-09-06T09:54:41;102152.67;;;21.93;40.94
40692;BME280;26377;53.344;14.886;2022-09-06T09:57:13;102150.72;;;22.01;40.92
40692;BME280;26377;53.344;14.886;2022-09-06T09:59:50;102142.13;;;22.01;40.68
40692;BME280;26377;53.344;14.886;2022-09-06T10:02:35;102143.62;;;22.05;40.52
40692;BME280;26377;53.344;14.886;2022-09-06T10:07:50;102140.55;;;22.04;40.28
40692;BME280;26377;53.344;14.886;2022-09-06T10:10:25;102141.42;;;22.10;40.18
40692;BME280;26377;53.344;14.886;2022-09-06T10:13:22;102133.70;;;22.23;40.04
40692;BME280;26377;53.344;14.886;2022-09-06T10:15:56;102135.91;;;22.39;39.91
40692;BME280;26377;53.344;14.886;2022-09-06T10:18:32;102128.23;;;22.57;39.78
40692;BME280;26377;53.344;14.886;2022-09-06T10:32:16;102117.84;;;22.95;38.75
40692;BME280;26377;53.344;14.886;2022-09-06T10:40:59;102115.20;;;23.21;38.16
40692;BME280;26377;53.344;14.886;2022-09-06T10:46:18;102109.78;;;23.27;37.71
40692;BME280;26377;53.344;14.886;2022-09-06T10:48:47;102106.12;;;23.22;37.46
40692;BME280;26377;53.344;14.886;2022-09-06T10:51:40;102106.84;;;23.24;37.42
40692;BME280;26377;53.344;14.886;2022-09-06T10:54:12;102101.64;;;23.32;37.37
40692;BME280;26377;53.344;14.886;2022-09-06T10:56:48;102108.41;;;23.32;37.23
40692;BME280;26377;53.344;14.886;2022-09-06T10:59:37;102104.35;;;23.32;37.17
40692;BME280;26377;53.344;14.886;2022-09-06T11:05:03;102098.19;;;23.30;36.64
40692;BME280;26377;53.344;14.886;2022-09-06T11:07:44;102091.10;;;23.24;36.39
40692;BME280;26377;53.344;14.886;2022-09-06T11:10:26;102095.40;;;23.26;36.40
40692;BME280;26377;53.344;14.886;2022-09-06T11:13:16;102087.40;;;23.25;36.33
40692;BME280;26377;53.344;14.886;2022-09-06T11:18:59;102083.61;;;23.05;35.96
40692;BME280;26377;53.344;14.886;2022-09-06T11:21:37;102083.61;;;23.05;35.99
40692;BME280;26377;53.344;14.886;2022-09-06T11:24:14;102082.70;;;23.27;36.01
40692;BME280;26377;53.344;14.886;2022-09-06T11:27:10;102067.77;;;23.58;36.14
40692;BME280;26377;53.344;14.886;2022-09-06T11:29:43;102065.27;;;23.92;35.94
40692;BME280;26377;53.344;14.886;2022-09-06T11:32:39;102061.27;;;24.17;35.69
40692;BME280;26377;53.344;14.886;2022-09-06T11:35:19;102059.13;;;24.20;35.37
40692;BME280;26377;53.344;14.886;2022-09-06T11:40:55;102052.04;;;23.99;34.94
40692;BME280;26377;53.344;14.886;2022-09-06T11:43:50;102054.39;;;23.98;34.87
40692;BME280;26377;53.344;14.886;2022-09-06T11:49:28;102046.75;;;23.97;34.69
40692;BME280;26377;53.344;14.886;2022-09-06T11:51:57;102047.00;;;23.94;34.62
40692;BME280;26377;53.344;14.886;2022-09-06T11:54:33;102050.58;;;23.95;34.62
40692;BME280;26377;53.344;14.886;2022-09-06T11:57:19;102044.91;;;24.13;34.67
40692;BME280;26377;53.344;14.886;2022-09-06T12:02:37;102035.42;;;24.52;34.46
40692;BME280;26377;53.344;14.886;2022-09-06T12:10:44;102032.27;;;24.47;33.78
40692;BME280;26377;53.344;14.886;2022-09-06T12:16:21;102023.15;;;24.33;33.63
40692;BME280;26377;53.344;14.886;2022-09-06T12:18:52;102020.61;;;24.26;33.54
40692;BME280;26377;53.344;14.886;2022-09-06T12:21:41;102012.23;;;24.14;33.38
40692;BME280;26377;53.344;14.886;2022-09-06T12:27:09;102007.17;;;23.80;33.39
40692;BME280;26377;53.344;14.886;2022-09-06T12:30:00;102002.47;;;23.82;33.65
40692;BME280;26377;53.344;14.886;2022-09-06T12:35:16;101997.92;;;23.82;33.56
40692;BME280;26377;53.344;14.886;2022-09-06T12:38:00;101997.85;;;23.88;33.75
40692;BME280;26377;53.344;14.886;2022-09-06T12:40:31;101990.27;;;24.02;33.69
40692;BME280;26377;53.344;14.886;2022-09-06T12:43:04;101989.09;;;24.10;33.67
40692;BME280;26377;53.344;14.886;2022-09-06T12:45:32;101983.38;;;24.13;33.69
40692;BME280;26377;53.344;14.886;2022-09-06T12:48:09;101976.67;;;24.08;33.57
40692;BME280;26377;53.344;14.886;2022-09-06T12:50:39;101978.87;;;23.88;33.29
40692;BME280;26377;53.344;14.886;2022-09-06T12:53:20;101971.20;;;23.63;33.17
40692;BME280;26377;53.344;14.886;2022-09-06T12:56:07;101976.97;;;23.49;33.35
40692;BME280;26377;53.344;14.886;2022-09-06T12:58:39;101972.83;;;23.39;33.45
40692;BME280;26377;53.344;14.886;2022-09-06T13:01:31;101969.94;;;23.31;33.49
40692;BME280;26377;53.344;14.886;2022-09-06T13:06:31;101965.17;;;23.18;33.70
40692;BME280;26377;53.344;14.886;2022-09-06T13:09:05;101966.28;;;23.21;33.78
40692;BME280;26377;53.344;14.886;2022-09-06T13:11:39;101964.82;;;23.17;33.56
40692;BME280;26377;53.344;14.886;2022-09-06T13:14:12;101960.55;;;23.09;33.61
40692;BME280;26377;53.344;14.886;2022-09-06T13:16:45;101962.79;;;23.04;33.64
40692;BME280;26377;53.344;14.886;2022-09-06T13:19:30;101960.45;;;23.00;33.74
40692;BME280;26377;53.344;14.886;2022-09-06T13:22:03;101949.57;;;22.90;33.77
40692;BME280;26377;53.344;14.886;2022-09-06T13:24:38;101942.70;;;22.81;33.82
40692;BME280;26377;53.344;14.886;2022-09-06T13:27:34;101943.45;;;22.83;34.00
40692;BME280;26377;53.344;14.886;2022-09-06T13:30:06;101940.34;;;22.87;33.99
40692;BME280;26377;53.344;14.886;2022-09-06T13:32:44;101937.09;;;22.99;34.13
40692;BME280;26377;53.344;14.886;2022-09-06T13:35:23;101931.71;;;23.14;34.19
40692;BME280;26377;53.344;14.886;2022-09-06T13:38:28;101928.48;;;23.25;34.08
40692;BME280;26377;53.344;14.886;2022-09-06T13:46:38;101922.34;;;23.59;33.95
40692;BME280;26377;53.344;14.886;2022-09-06T13:49:05;101925.91;;;23.74;33.87
40692;BME280;26377;53.344;14.886;2022-09-06T13:51:33;101919.90;;;23.86;33.72
40692;BME280;26377;53.344;14.886;2022-09-06T13:54:10;101922.13;;;24.01;33.57
40692;BME280;26377;53.344;14.886;2022-09-06T13:56:40;101922.48;;;24.02;33.31
40692;BME280;26377;53.344;14.886;2022-09-06T13:59:11;101921.73;;;23.91;33.14
40692;BME280;26377;53.344;14.886;2022-09-06T14:01:39;101912.36;;;23.74;33.03
40692;BME280;26377;53.344;14.886;2022-09-06T14:04:12;101915.18;;;23.63;32.97
40692;BME280;26377;53.344;14.886;2022-09-06T14:06:46;101916.02;;;23.64;32.97
40692;BME280;26377;53.344;14.886;2022-09-06T14:09:14;101913.84;;;23.73;33.01
40692;BME280;26377;53.344;14.886;2022-09-06T14:11:42;101903.90;;;23.83;33.00
40692;BME280;26377;53.344;14.886;2022-09-06T14:14:48;101905.20;;;23.94;33.06
40692;BME280;26377;53.344;14.886;2022-09-06T14:17:18;101906.17;;;24.08;33.05
40692;BME280;26377;53.344;14.886;2022-09-06T14:19:45;101902.33;;;24.20;32.99
40692;BME280;26377;53.344;14.886;2022-09-06T14:22:14;101896.16;;;24.23;32.77
40692;BME280;26377;53.344;14.886;2022-09-06T14:24:42;101894.14;;;24.25;32.71
40692;BME280;26377;53.344;14.886;2022-09-06T14:27:10;101897.56;;;24.27;32.62
40692;BME280;26377;53.344;14.886;2022-09-06T14:29:37;101887.94;;;24.19;32.33
40692;BME280;26377;53.344;14.886;2022-09-06T14:32:05;101884.14;;;24.16;32.47
40692;BME280;26377;53.344;14.886;2022-09-06T14:34:33;101883.65;;;24.17;32.47
40692;BME280;26377;53.344;14.886;2022-09-06T14:37:00;101878.71;;;24.16;32.43
40692;BME280;26377;53.344;14.886;2022-09-06T14:39:28;101883.27;;;24.16;32.39
40692;BME280;26377;53.344;14.886;2022-09-06T14:41:55;101878.44;;;24.19;32.51
40692;BME280;26377;53.344;14.886;2022-09-06T14:44:23;101879.85;;;24.14;32.34
40692;BME280;26377;53.344;14.886;2022-09-06T14:46:50;101876.35;;;24.08;32.29
40692;BME280;26377;53.344;14.886;2022-09-06T14:49:19;101872.69;;;24.03;32.21
40692;BME280;26377;53.344;14.886;2022-09-06T14:51:47;101872.69;;;24.03;32.29
40692;BME280;26377;53.344;14.886;2022-09-06T14:54:14;101873.11;;;23.99;32.19
40692;BME280;26377;53.344;14.886;2022-09-06T14:56:42;101861.92;;;23.98;32.25
40692;BME280;26377;53.344;14.886;2022-09-06T14:59:10;101865.33;;;24.00;32.32
40692;BME280;26377;53.344;14.886;2022-09-06T15:01:38;101860.56;;;23.98;32.26
40692;BME280;26377;53.344;14.886;2022-09-06T15:04:09;101858.91;;;23.91;32.17
40692;BME280;26377;53.344;14.886;2022-09-06T15:06:39;101859.40;;;23.85;32.27
40692;BME280;26377;53.344;14.886;2022-09-06T15:09:08;101864.59;;;23.83;32.34
40692;BME280;26377;53.344;14.886;2022-09-06T15:11:39;101856.25;;;23.80;32.36
40692;BME280;26377;53.344;14.886;2022-09-06T15:14:16;101854.32;;;23.77;32.47
40692;BME280;26377;53.344;14.886;2022-09-06T15:16:50;101849.33;;;23.72;32.47